• Join FlightAware (Why Join?)
  • Login
  • US Flag 
10:58AM EDT


 

Airport Tracker/Info


-or-


 

Live Flight TrackerFlight Track Log ✈ N229CN ✈ 21-May-2013 ✈ KBTV - KBED

Flight Track Log - Related Links

Times and Time Zones

All times are in EDT time to prevent confusion due to time zone crossing. See the N229CN flight status page for this flight to view local times or setup timezone preferences in your user account.

Time Position Orientation Groundspeed Altitude Reporting Facility
EDT Latitude Longitude Course Direction KTS MPH feet Rate Location/Type
07:58AM 44.5339 -73.1944 136° Southeast 247 284 5,100  Level Boston Center
07:59AM 44.5222 -73.0689 97° East 306 352 8,800 3,360 Climbing Boston Center
08:00AM 44.4517 -72.9956 143° Southeast 285 328 11,900 2,820 Climbing Boston Center
08:01AM 44.3769 -72.9281 147° Southeast 301 346 14,500 2,400 Climbing Boston Center
08:02AM 44.2981 -72.8606 149° Southeast 328 377 16,700 2,100 Climbing Boston Center
08:03AM 44.1802 -72.8902 136° Southeast  Level FlightAware Approximate
08:03AM 44.2192 -72.7906 148° Southeast 339 390 18,800  Level Boston Center
08:04AM 44.1319 -72.7119 147° Southeast 359 413 19,000 60 Climbing Boston Center
08:05AM 44.0383 -72.6308 148° Southeast 386 444 19,000  Level Boston Center
08:06AM 43.9486 -72.5553 149° Southeast 386 444 19,000  Level Boston Center
08:07AM 43.8717 -72.4861 147° Southeast 379 436 19,000  Level Boston Center
08:08AM 43.7842 -72.4114 148° Southeast 379 436 19,000  Level Boston Center
08:09AM 43.6967 -72.3311 146° Southeast 374 430 19,000  Level Boston Center
08:10AM 43.6069 -72.2567 149° Southeast 374 430 19,000  Level Boston Center
08:11AM 43.5192 -72.1794 147° Southeast 374 430 19,000  Level Boston Center
08:12AM 43.4314 -72.1056 149° Southeast 374 430 19,000  Level Boston Center
08:13AM 43.3333 -72.0261 149° Southeast 374 430 19,000 -660 Level Boston Center
08:14AM 43.2539 -71.9556 147° Southeast 379 436 17,700 -2,040 Descending Boston Center
08:15AM 43.1597 -71.8794 149° Southeast 374 430 15,000 -2,520 Descending Boston Center
08:16AM 43.0844 -71.8403 159° South 339 390 12,700 -2,520 Descending Boston Center
08:17AM 42.9925 -71.7900 158° South 323 372 10,000 -2,580 Descending Boston Center
08:18AM 42.9236 -71.7567 160° South 306 352 7,600 -2,520 Descending Boston Center
08:19AM 42.8483 -71.7181 159° South 284 327 5,000 -1,800 Descending Boston Center
08:20AM 42.7939 -71.6875 158° South 250 288 4,000 -540 Descending Boston Center
08:21AM 42.7250 -71.6572 162° South 243 280 4,000  Level Boston Center
08:22AM 42.6831 -71.6381 161° South 238 274 4,000 -420 Level Boston Center
08:23AM 42.6142 -71.6078 162° South 208 239 3,200 -540 Descending Boston Center
08:24AM 42.5639 -71.5858 162° South 203 234 3,000 -120 Descending Boston Center
08:25AM 42.5333 -71.5667 155° Southeast 180 207 3,000 -480 Level KA90
08:26AM 42.5000 -71.5000 124° Southeast 176 203 2,100 -600 Descending KA90
08:27AM 42.4833 -71.4500 114° Southeast 145 167 1,800 -300 Descending KA90
08:28AM 42.4833 -71.4000 90° East 141 162 1,500 -480 Descending KA90
08:29AM 42.4833 -71.3500 90° East 114 131 900 -540 Descending KA90
08:30AM 42.4667 -71.3167 124° Southeast 99 114 400 -540 Descending KA90
08:32AM 42.4667 -71.2833 126° Southeast  Level FlightAware Approximate